createdAt,value
2019-02-07T00:00:23.875Z,25.50
2019-02-07T00:01:23.855Z,26.50
2019-02-07T00:02:23.851Z,27.80
2019-02-07T00:03:23.830Z,25.40
2019-02-07T00:04:24.037Z,27.70
2019-02-07T00:05:23.845Z,27.70
2019-02-07T00:06:23.826Z,25.90
2019-02-07T00:07:23.918Z,25.30
2019-02-07T00:08:23.842Z,26.90
2019-02-07T00:09:23.815Z,26.40
2019-02-07T00:10:23.743Z,24.20
2019-02-07T00:11:23.776Z,27.60
2019-02-07T00:12:23.751Z,29.20
2019-02-07T00:13:23.700Z,27.30
2019-02-07T00:14:23.700Z,28.30
2019-02-07T00:15:23.683Z,25.30
2019-02-07T00:16:23.689Z,28.90
2019-02-07T00:17:23.693Z,27.50
2019-02-07T00:18:23.708Z,26.10
2019-02-07T00:19:23.677Z,24.50
2019-02-07T00:20:23.630Z,26.40
2019-02-07T00:21:23.737Z,29.00
2019-02-07T00:22:23.879Z,24.60
2019-02-07T00:23:23.615Z,24.20
2019-02-07T00:24:23.607Z,26.00
2019-02-07T00:25:23.598Z,26.40
2019-02-07T00:26:23.634Z,20.70
2019-02-07T00:27:23.659Z,23.10
2019-02-07T00:28:23.593Z,23.80
2019-02-07T00:29:23.533Z,23.30
2019-02-07T00:30:23.527Z,24.20
2019-02-07T00:31:23.526Z,24.60
2019-02-07T00:32:23.501Z,24.30
2019-02-07T00:33:23.563Z,25.30
2019-02-07T00:34:23.470Z,25.80
2019-02-07T00:35:23.494Z,25.00
2019-02-07T00:36:23.568Z,23.70
2019-02-07T00:37:23.520Z,23.80
2019-02-07T00:38:23.510Z,22.80
2019-02-07T00:39:23.434Z,25.20
2019-02-07T00:40:23.436Z,26.50
2019-02-07T00:41:23.414Z,25.60
2019-02-07T00:42:23.412Z,25.70
2019-02-07T00:43:23.415Z,23.10
2019-02-07T00:44:23.410Z,25.00
2019-02-07T00:45:23.350Z,24.50
2019-02-07T00:46:23.364Z,24.40
2019-02-07T00:47:23.364Z,23.80
2019-02-07T00:48:23.331Z,21.90
2019-02-07T00:49:23.533Z,25.80
2019-02-07T00:50:23.336Z,21.80
2019-02-07T00:51:23.337Z,26.20
2019-02-07T00:52:23.277Z,25.50
2019-02-07T00:53:23.288Z,24.70
2019-02-07T00:54:23.334Z,26.90
2019-02-07T00:55:23.297Z,25.80
2019-02-07T00:56:23.233Z,22.80
2019-02-07T00:57:23.229Z,25.50
2019-02-07T00:58:23.219Z,24.80
2019-02-07T00:59:23.238Z,24.10
2019-02-07T01:00:23.208Z,25.10
2019-02-07T01:01:23.181Z,23.10
2019-02-07T01:02:23.195Z,26.80
2019-02-07T01:05:35.315Z,22.50
2019-02-07T01:06:35.333Z,25.20
2019-02-07T01:07:35.277Z,25.40
2019-02-07T01:08:35.296Z,26.70
2019-02-07T01:09:35.162Z,25.70
2019-02-07T01:10:35.139Z,28.20
2019-02-07T01:11:35.120Z,24.30
2019-02-07T01:12:35.103Z,24.50
2019-02-07T01:13:35.094Z,28.10
2019-02-07T01:14:35.114Z,25.20
2019-02-07T01:15:35.066Z,28.60
2019-02-07T01:16:35.102Z,22.00
2019-02-07T01:17:35.055Z,25.40
2019-02-07T01:18:35.089Z,24.80
2019-02-07T01:19:35.057Z,23.50
2019-02-07T01:20:35.019Z,25.30
2019-02-07T01:21:35.015Z,26.90
2019-02-07T01:22:35.007Z,23.80
2019-02-07T01:23:34.999Z,31.70
2019-02-07T01:24:35.004Z,27.10
2019-02-07T01:25:34.977Z,24.20
2019-02-07T01:26:34.959Z,28.60
2019-02-07T01:27:35.035Z,26.50
2019-02-07T01:28:34.946Z,25.20
2019-02-07T01:29:34.954Z,27.10
2019-02-07T01:30:34.914Z,26.30
2019-02-07T01:31:34.900Z,26.30
2019-02-07T01:32:34.934Z,27.30
2019-02-07T01:33:34.887Z,26.30
2019-02-07T01:34:34.901Z,26.00
2019-02-07T01:35:34.871Z,26.90
2019-02-07T01:36:34.869Z,27.60
2019-02-07T01:37:34.844Z,27.40
2019-02-07T01:38:34.849Z,27.40
2019-02-07T01:39:34.842Z,26.90
2019-02-07T01:40:34.840Z,27.00
2019-02-07T01:41:34.812Z,29.90
2019-02-07T01:42:34.808Z,26.60
2019-02-07T01:43:34.842Z,27.30
2019-02-07T01:44:34.810Z,24.30
2019-02-07T01:45:34.780Z,24.80
2019-02-07T01:46:34.766Z,24.80
2019-02-07T01:47:34.741Z,30.40
2019-02-07T01:48:34.752Z,26.80
2019-02-07T01:49:34.743Z,26.10
2019-02-07T01:50:34.716Z,28.80
2019-02-07T01:51:34.706Z,27.90
2019-02-07T01:52:34.696Z,24.80
2019-02-07T01:53:34.677Z,25.40
2019-02-07T01:54:34.685Z,27.80
2019-02-07T01:55:34.656Z,27.50
2019-02-07T01:56:34.643Z,29.70
2019-02-07T01:57:34.703Z,27.00
2019-02-07T01:58:34.692Z,28.30
2019-02-07T01:59:34.656Z,27.30
2019-02-07T02:00:34.623Z,30.70
2019-02-07T02:01:34.593Z,28.10
2019-02-07T02:02:34.588Z,28.80
2019-02-07T02:03:34.589Z,30.60
2019-02-07T02:04:34.595Z,30.90
2019-02-07T02:05:34.581Z,31.10
2019-02-07T02:06:34.562Z,32.30
2019-02-07T02:07:34.538Z,27.80
2019-02-07T02:08:34.535Z,31.10
2019-02-07T02:09:34.572Z,28.80
2019-02-07T02:10:34.500Z,27.40
2019-02-07T02:11:34.493Z,31.30
2019-02-07T02:12:34.536Z,28.70
2019-02-07T02:13:34.496Z,29.10
2019-02-07T02:14:34.478Z,30.50
2019-02-07T02:15:34.460Z,29.40
2019-02-07T02:16:34.444Z,27.70
2019-02-07T02:17:34.431Z,29.30
2019-02-07T02:18:34.431Z,30.30
2019-02-07T02:19:34.465Z,29.20
2019-02-07T02:20:34.403Z,27.70
2019-02-07T02:21:34.386Z,30.20
2019-02-07T02:22:34.370Z,31.10
2019-02-07T02:23:34.380Z,28.30
2019-02-07T02:24:34.376Z,31.50
2019-02-07T02:25:34.397Z,27.80
2019-02-07T02:26:34.338Z,26.00
2019-02-07T02:27:34.320Z,30.30
2019-02-07T02:28:34.379Z,31.70
2019-02-07T02:29:34.329Z,28.30
2019-02-07T02:30:34.321Z,28.50
2019-02-07T02:31:34.282Z,27.80
2019-02-07T02:32:34.285Z,27.80
2019-02-07T02:33:34.264Z,31.70
2019-02-07T02:34:34.309Z,30.80
2019-02-07T02:35:34.249Z,27.30
2019-02-07T02:36:34.245Z,30.20
2019-02-07T02:37:34.221Z,29.50
2019-02-07T02:38:34.223Z,28.90
2019-02-07T02:39:34.221Z,29.50
2019-02-07T02:40:34.260Z,30.10
2019-02-07T02:41:34.190Z,30.00
2019-02-07T02:42:34.166Z,31.90
2019-02-07T02:43:34.157Z,27.70
2019-02-07T02:44:34.182Z,28.10
2019-02-07T02:45:37.633Z,28.70
2019-02-07T02:46:34.126Z,27.30
2019-02-07T02:47:34.161Z,30.20
2019-02-07T02:48:34.132Z,29.50
2019-02-07T02:49:34.121Z,28.30
2019-02-07T02:50:34.090Z,30.30
2019-02-07T02:51:34.074Z,28.90
2019-02-07T02:52:34.061Z,27.20
2019-02-07T02:53:34.087Z,28.30
2019-02-07T02:54:34.074Z,28.00
2019-02-07T02:55:34.047Z,27.50
2019-02-07T02:56:34.018Z,26.50
2019-02-07T02:57:34.008Z,28.60
2019-02-07T02:58:34.005Z,31.00
2019-02-07T02:59:34.028Z,25.50
2019-02-07T03:00:33.979Z,26.00
2019-02-07T03:01:33.970Z,29.10
2019-02-07T03:02:33.970Z,30.00
2019-02-07T03:03:33.992Z,26.50
2019-02-07T03:04:33.980Z,29.10
2019-02-07T03:05:33.929Z,27.60
2019-02-07T03:06:33.921Z,27.10
2019-02-07T03:07:33.906Z,29.00
2019-02-07T03:08:33.920Z,26.80
2019-02-07T03:09:34.628Z,27.80
2019-02-07T03:10:33.907Z,28.40
2019-02-07T03:11:33.865Z,25.00
2019-02-07T03:12:33.853Z,27.40
2019-02-07T03:13:33.844Z,26.10
2019-02-07T03:14:33.834Z,27.20
2019-02-07T03:15:33.843Z,25.80
2019-02-07T03:16:33.809Z,27.10
2019-02-07T03:17:33.821Z,27.70
2019-02-07T03:18:33.792Z,26.90
2019-02-07T03:19:33.780Z,27.50
2019-02-07T03:20:33.789Z,27.90
2019-02-07T03:21:33.748Z,28.80
2019-02-07T03:22:41.321Z,29.80
2019-02-07T03:23:33.736Z,28.00
2019-02-07T03:24:33.718Z,27.90
2019-02-07T03:25:41.361Z,25.00
2019-02-07T03:26:33.730Z,25.80
2019-02-07T03:27:41.239Z,28.70
2019-02-07T03:28:33.717Z,25.80
2019-02-07T03:29:33.674Z,28.20
2019-02-07T03:30:41.244Z,24.90
2019-02-07T03:31:33.657Z,29.30
2019-02-07T03:32:33.644Z,29.20
2019-02-07T03:33:33.624Z,23.50
2019-02-07T03:34:33.614Z,28.20
2019-02-07T03:35:33.601Z,28.90
2019-02-07T03:36:33.651Z,27.30
2019-02-07T03:37:33.616Z,26.30
2019-02-07T03:38:41.116Z,27.50
2019-02-07T03:39:33.582Z,25.10
2019-02-07T03:40:41.095Z,27.00
2019-02-07T03:41:33.604Z,26.30
2019-02-07T03:42:41.107Z,26.00
2019-02-07T03:43:33.547Z,29.30
2019-02-07T03:44:41.084Z,27.60
2019-02-07T03:45:33.510Z,27.30
2019-02-07T03:46:33.521Z,26.70
2019-02-07T03:47:41.067Z,30.20
2019-02-07T03:48:33.474Z,27.70
2019-02-07T03:49:41.024Z,31.00
2019-02-07T03:50:33.614Z,27.60
2019-02-07T03:51:40.999Z,26.10
2019-02-07T03:52:33.450Z,28.60
2019-02-07T03:53:33.419Z,28.00
2019-02-07T03:54:33.421Z,28.00
2019-02-07T03:55:33.394Z,27.00
2019-02-07T03:56:40.945Z,27.90
2019-02-07T03:57:33.417Z,26.50
2019-02-07T03:58:33.359Z,24.90
2019-02-07T03:59:40.922Z,30.40
2019-02-07T04:00:33.361Z,27.60
2019-02-07T04:01:33.358Z,26.60
2019-02-07T04:02:33.402Z,26.40
2019-02-07T04:03:33.333Z,24.90
2019-02-07T04:04:33.292Z,29.30
2019-02-07T04:05:33.324Z,26.50
2019-02-07T04:06:33.327Z,25.50
2019-02-07T04:07:33.260Z,27.40
2019-02-07T04:08:33.249Z,25.10
2019-02-07T04:09:33.260Z,26.80
2019-02-07T04:10:43.174Z,27.40
2019-02-07T04:11:33.284Z,25.10
2019-02-07T04:12:33.212Z,24.80
2019-02-07T04:13:40.744Z,26.00
2019-02-07T04:14:33.200Z,26.30
2019-02-07T04:15:33.179Z,24.20
2019-02-07T04:16:33.212Z,25.30
2019-02-07T04:17:33.204Z,28.50
2019-02-07T04:18:40.697Z,23.90
2019-02-07T04:19:33.148Z,27.80
2019-02-07T04:20:40.700Z,23.80
2019-02-07T04:21:33.170Z,25.20
2019-02-07T04:22:33.105Z,26.20
2019-02-07T04:23:40.652Z,23.90
2019-02-07T04:24:33.096Z,26.30
2019-02-07T04:25:40.614Z,28.00
2019-02-07T04:26:33.088Z,26.10
2019-02-07T04:27:33.087Z,29.90
2019-02-07T04:28:40.629Z,23.80
2019-02-07T04:29:33.058Z,23.40
2019-02-07T04:30:33.039Z,24.10
2019-02-07T04:31:33.093Z,22.40
2019-02-07T04:32:33.016Z,26.00
2019-02-07T04:33:44.367Z,24.60
2019-02-07T04:34:33.034Z,25.30
2019-02-07T04:35:33.169Z,23.80
2019-02-07T04:36:33.022Z,25.00
2019-02-07T04:37:33.029Z,23.10
2019-02-07T04:38:32.959Z,26.60
2019-02-07T04:39:32.942Z,24.20
2019-02-07T04:40:32.933Z,24.90
2019-02-07T04:41:32.927Z,23.60
2019-02-07T04:42:33.858Z,27.90
2019-02-07T04:43:32.899Z,26.50
2019-02-07T04:44:32.904Z,26.00
2019-02-07T04:45:32.997Z,25.80
2019-02-07T04:46:32.864Z,24.50
2019-02-07T04:47:32.872Z,25.10
2019-02-07T04:48:32.875Z,26.30
2019-02-07T04:49:32.896Z,23.70
2019-02-07T04:50:32.829Z,25.20
2019-02-07T04:51:32.809Z,22.70
2019-02-07T04:52:32.837Z,25.30
2019-02-07T04:53:32.791Z,23.70
2019-02-07T04:54:32.774Z,22.70
2019-02-07T04:55:32.764Z,23.40
2019-02-07T04:56:32.786Z,23.40
2019-02-07T04:57:32.783Z,23.00
2019-02-07T04:58:32.744Z,21.90
2019-02-07T04:59:32.730Z,23.70
2019-02-07T05:00:32.732Z,22.10
2019-02-07T05:01:32.712Z,22.60
2019-02-07T05:02:32.713Z,23.10
2019-02-07T05:03:32.863Z,23.40
2019-02-07T05:04:32.688Z,25.70
2019-02-07T05:05:32.655Z,24.10
2019-02-07T05:06:32.646Z,26.00
2019-02-07T05:07:32.636Z,22.00
2019-02-07T05:08:32.662Z,23.40
2019-02-07T05:09:32.620Z,23.80
2019-02-07T05:10:32.708Z,22.50
2019-02-07T05:11:32.594Z,22.00
2019-02-07T05:12:32.593Z,23.00
2019-02-07T05:13:32.601Z,24.60
2019-02-07T05:14:32.584Z,23.70
2019-02-07T05:15:32.550Z,21.40
2019-02-07T05:16:40.147Z,24.30
2019-02-07T05:17:33.545Z,25.00
2019-02-07T05:18:32.524Z,23.90
2019-02-07T05:19:32.543Z,23.80
2019-02-07T05:20:32.524Z,25.20
2019-02-07T05:21:32.484Z,24.30
2019-02-07T05:22:32.479Z,23.50
2019-02-07T05:23:32.470Z,22.60
2019-02-07T05:24:32.487Z,25.10
2019-02-07T05:25:32.437Z,25.40
2019-02-07T05:26:32.442Z,21.00
2019-02-07T05:27:35.008Z,25.20
2019-02-07T05:28:32.403Z,23.80
2019-02-07T05:29:32.417Z,24.60
2019-02-07T05:30:32.397Z,23.80
2019-02-07T05:31:32.372Z,23.20
2019-02-07T05:32:32.477Z,23.30
2019-02-07T05:33:32.356Z,22.60
2019-02-07T05:34:32.356Z,22.00
2019-02-07T05:35:32.357Z,22.90
2019-02-07T05:36:42.163Z,25.20
2019-02-07T05:37:32.318Z,22.90
2019-02-07T05:38:39.896Z,22.70
2019-02-07T05:39:32.323Z,23.30
2019-02-07T05:40:39.882Z,24.60
2019-02-07T05:41:32.311Z,23.50
2019-02-07T05:42:32.312Z,22.90
2019-02-07T05:43:32.246Z,23.90
2019-02-07T05:44:32.234Z,24.10
2019-02-07T05:45:39.845Z,24.70
2019-02-07T05:46:32.243Z,21.80
2019-02-07T05:47:32.221Z,24.00
2019-02-07T05:48:32.196Z,21.50
2019-02-07T05:49:32.221Z,24.50
2019-02-07T05:50:32.230Z,21.60
2019-02-07T05:51:32.172Z,22.80
2019-02-07T05:52:32.191Z,26.10
2019-02-07T05:53:32.160Z,25.80
2019-02-07T05:54:32.152Z,22.30
2019-02-07T05:55:32.147Z,24.40
2019-02-07T05:56:32.140Z,21.50
2019-02-07T05:57:32.102Z,22.20
2019-02-07T05:58:32.117Z,20.70
2019-02-07T05:59:32.111Z,24.50
2019-02-07T06:00:32.107Z,22.50
2019-02-07T06:01:32.086Z,21.10
2019-02-07T06:02:32.136Z,22.30
2019-02-07T06:03:32.089Z,22.00
2019-02-07T06:04:32.099Z,22.70
2019-02-07T06:05:32.018Z,23.30
2019-02-07T06:06:32.308Z,19.30
2019-02-07T06:07:32.016Z,24.80
2019-02-07T06:08:32.010Z,24.20
2019-02-07T06:09:31.984Z,21.20
2019-02-07T06:10:31.972Z,24.60
2019-02-07T06:11:32.043Z,21.80
2019-02-07T06:12:31.948Z,23.30
2019-02-07T06:13:31.937Z,22.70
2019-02-07T06:14:31.926Z,22.10
2019-02-07T06:15:31.953Z,23.40
2019-02-07T06:16:31.928Z,22.90
2019-02-07T06:17:31.895Z,23.40
2019-02-07T06:18:31.887Z,23.40
2019-02-07T06:19:31.898Z,24.10
2019-02-07T06:20:31.931Z,21.70
2019-02-07T06:21:31.877Z,24.80
2019-02-07T06:22:31.842Z,26.00
2019-02-07T06:23:31.831Z,25.10
2019-02-07T06:24:31.847Z,25.30
2019-02-07T06:25:31.811Z,22.50
2019-02-07T06:26:31.805Z,22.80
2019-02-07T06:27:31.820Z,24.80
2019-02-07T06:28:31.806Z,27.10
2019-02-07T06:29:31.769Z,24.50
2019-02-07T06:30:31.761Z,24.90
2019-02-07T06:31:31.752Z,26.80
2019-02-07T06:32:31.806Z,24.10
2019-02-07T06:33:31.737Z,23.80
2019-02-07T06:34:31.718Z,26.20
2019-02-07T06:35:31.708Z,23.60
2019-02-07T06:36:31.705Z,25.00
2019-02-07T06:37:31.711Z,24.90
2019-02-07T06:38:31.697Z,25.10
2019-02-07T06:39:31.707Z,26.50
2019-02-07T06:40:31.657Z,23.80
2019-02-07T06:41:31.647Z,28.10
2019-02-07T06:42:31.658Z,24.90
2019-02-07T06:43:31.632Z,25.40
2019-02-07T06:44:31.623Z,27.10
2019-02-07T06:45:31.606Z,25.90
2019-02-07T06:46:31.604Z,23.90
2019-02-07T06:47:31.621Z,25.00
2019-02-07T06:48:31.585Z,27.70
2019-02-07T06:49:31.564Z,25.00
2019-02-07T06:50:31.554Z,23.90
2019-02-07T06:51:31.545Z,23.30
2019-02-07T06:52:31.548Z,26.60
2019-02-07T06:53:31.540Z,22.60
2019-02-07T06:54:31.507Z,25.90
2019-02-07T06:55:31.497Z,24.60
2019-02-07T06:56:31.488Z,25.00
2019-02-07T06:57:31.498Z,26.50
2019-02-07T06:58:31.488Z,27.70
2019-02-07T06:59:31.458Z,26.00
2019-02-07T07:00:31.445Z,23.50
2019-02-07T07:01:31.446Z,27.90
2019-02-07T07:02:31.428Z,24.30
2019-02-07T07:03:31.415Z,22.80
2019-02-07T07:04:31.424Z,25.20
2019-02-07T07:05:38.955Z,24.80
2019-02-07T07:06:31.407Z,25.40
2019-02-07T07:07:31.387Z,24.20
2019-02-07T07:08:31.393Z,25.60
2019-02-07T07:09:31.415Z,25.40
2019-02-07T07:10:31.386Z,25.30
2019-02-07T07:11:31.373Z,21.70
2019-02-07T07:12:31.344Z,25.00
2019-02-07T07:13:38.898Z,24.70
2019-02-07T07:14:31.332Z,24.10
2019-02-07T07:15:40.304Z,24.50
2019-02-07T07:16:31.300Z,24.20
2019-02-07T07:17:31.283Z,24.80
2019-02-07T07:18:31.296Z,24.70
2019-02-07T07:19:31.292Z,24.80
2019-02-07T07:20:31.253Z,24.70
2019-02-07T07:21:31.245Z,24.30
2019-02-07T07:22:31.273Z,25.30
2019-02-07T07:23:31.255Z,26.30
2019-02-07T07:24:31.319Z,24.10
2019-02-07T07:25:31.201Z,24.60
2019-02-07T07:26:31.183Z,24.80
2019-02-07T07:27:31.167Z,25.80
2019-02-07T07:28:31.159Z,27.10
2019-02-07T07:29:31.170Z,27.20
2019-02-07T07:30:31.137Z,24.80
2019-02-07T07:31:31.140Z,25.30
2019-02-07T07:32:31.119Z,23.20
2019-02-07T07:33:38.651Z,24.50
2019-02-07T07:34:31.112Z,24.80
2019-02-07T07:35:31.117Z,24.60
2019-02-07T07:36:38.666Z,21.10
2019-02-07T07:37:31.071Z,19.50
2019-02-07T07:38:31.074Z,18.10
2019-02-07T07:39:31.089Z,17.50
2019-02-07T07:40:31.078Z,15.80
2019-02-07T07:41:31.040Z,14.00
2019-02-07T07:42:38.600Z,15.30
2019-02-07T07:43:31.039Z,15.60
2019-02-07T07:44:30.997Z,13.70
2019-02-07T07:45:31.040Z,15.60
2019-02-07T07:46:30.998Z,15.50
2019-02-07T07:47:36.012Z,14.00
2019-02-07T07:48:31.984Z,12.80
2019-02-07T07:49:30.980Z,12.80
2019-02-07T07:50:30.950Z,13.00
2019-02-07T07:51:30.920Z,12.80
2019-02-07T07:52:30.929Z,12.80
2019-02-07T07:53:30.912Z,10.30
2019-02-07T07:54:30.914Z,10.20
2019-02-07T07:55:30.927Z,9.90
2019-02-07T07:56:30.903Z,10.20
2019-02-07T07:57:30.854Z,8.70
2019-02-07T07:58:30.870Z,8.60
2019-02-07T07:59:30.837Z,8.60
2019-02-07T08:00:30.895Z,11.50
2019-02-07T08:01:30.850Z,8.00
2019-02-07T08:02:30.843Z,8.90
2019-02-07T08:03:30.803Z,8.10
2019-02-07T08:04:30.795Z,8.40
2019-02-07T08:05:38.342Z,7.50
2019-02-07T08:06:30.790Z,6.80
2019-02-07T08:07:30.778Z,6.70
2019-02-07T08:08:30.739Z,6.70
2019-02-07T08:09:30.743Z,6.70
2019-02-07T08:10:30.759Z,8.20
2019-02-07T08:11:30.755Z,5.50
2019-02-07T08:12:30.710Z,7.60
2019-02-07T08:13:30.686Z,6.20
2019-02-07T08:14:30.694Z,5.60
2019-02-07T08:15:30.666Z,7.00
2019-02-07T08:16:39.265Z,5.80
2019-02-07T08:17:30.663Z,4.30
2019-02-07T08:18:30.668Z,4.20
2019-02-07T08:19:30.633Z,5.50
2019-02-07T08:20:30.646Z,4.30
2019-02-07T08:21:30.604Z,4.10
2019-02-07T08:22:30.626Z,4.10
2019-02-07T08:23:30.580Z,4.60
2019-02-07T08:24:30.612Z,3.80
2019-02-07T08:25:30.573Z,4.20
2019-02-07T08:26:30.558Z,4.10
2019-02-07T08:27:30.590Z,3.50
2019-02-07T08:28:30.546Z,4.80
2019-02-07T08:29:30.540Z,5.40
2019-02-07T08:30:36.341Z,4.00
2019-02-07T08:31:31.511Z,3.30
2019-02-07T08:32:30.510Z,3.60
2019-02-07T08:33:30.507Z,4.10
2019-02-07T08:34:30.466Z,3.70
2019-02-07T08:35:30.461Z,4.20
2019-02-07T08:36:30.454Z,4.10
2019-02-07T08:37:30.508Z,4.10
2019-02-07T08:38:30.467Z,3.30
2019-02-07T08:39:30.426Z,3.40
2019-02-07T08:40:37.958Z,3.60
2019-02-07T08:41:30.390Z,3.50
2019-02-07T08:42:30.417Z,3.50
2019-02-07T08:43:30.406Z,4.50
2019-02-07T08:44:30.368Z,3.50
2019-02-07T08:45:30.391Z,3.90
2019-02-07T08:46:30.370Z,3.00
2019-02-07T08:47:30.369Z,3.50
2019-02-07T08:48:30.373Z,3.10
2019-02-07T08:49:30.300Z,2.50
2019-02-07T08:50:30.345Z,4.20
2019-02-07T08:51:30.286Z,5.20
2019-02-07T08:52:30.459Z,2.70
2019-02-07T08:53:31.266Z,3.60
2019-02-07T08:54:30.252Z,3.00
2019-02-07T08:55:30.234Z,2.90
2019-02-07T08:56:30.227Z,3.20
2019-02-07T08:57:30.222Z,3.90
2019-02-07T08:58:30.207Z,2.90
2019-02-07T08:59:30.208Z,3.60
2019-02-07T09:00:30.199Z,4.40
2019-02-07T09:01:30.164Z,3.60
2019-02-07T09:02:30.167Z,3.20
2019-02-07T09:03:30.155Z,4.50
2019-02-07T09:04:31.746Z,4.00
2019-02-07T09:05:30.138Z,4.40
2019-02-07T09:06:30.117Z,3.90
2019-02-07T09:07:32.121Z,6.50
2019-02-07T09:08:30.119Z,4.10
2019-02-07T09:09:30.178Z,7.40
2019-02-07T09:10:30.093Z,4.10
2019-02-07T09:11:30.062Z,3.80
2019-02-07T09:12:30.046Z,5.10
2019-02-07T09:13:30.039Z,4.40
2019-02-07T09:14:30.030Z,8.60
2019-02-07T09:15:30.038Z,9.20
2019-02-07T09:16:30.007Z,10.50
2019-02-07T09:17:29.994Z,12.50
2019-02-07T09:18:29.984Z,14.00
2019-02-07T09:19:29.976Z,13.20
2019-02-07T09:20:29.980Z,12.10
2019-02-07T09:21:29.963Z,9.40
2019-02-07T09:22:29.935Z,15.50
2019-02-07T09:23:29.922Z,16.20
2019-02-07T09:24:29.913Z,16.20
2019-02-07T09:25:34.344Z,10.80
2019-02-07T09:26:29.960Z,22.90
2019-02-07T09:27:29.877Z,19.00
2019-02-07T09:28:29.870Z,20.30
2019-02-07T09:29:29.866Z,17.20
2019-02-07T09:30:37.405Z,13.50
2019-02-07T09:31:29.886Z,21.30
2019-02-07T09:32:29.864Z,17.40
2019-02-07T09:33:29.820Z,19.00
2019-02-07T09:34:29.817Z,14.20
2019-02-07T09:35:29.799Z,15.00
2019-02-07T09:36:37.406Z,17.40
2019-02-07T09:37:29.825Z,18.10
2019-02-07T09:38:29.765Z,21.20
2019-02-07T09:39:29.755Z,17.70
2019-02-07T09:40:29.779Z,20.70
2019-02-07T09:41:29.719Z,19.50
2019-02-07T09:42:29.793Z,14.40
2019-02-07T09:43:29.713Z,17.40
2019-02-07T09:44:29.709Z,17.80
2019-02-07T09:45:29.731Z,17.90
2019-02-07T09:46:29.685Z,16.00
2019-02-07T09:47:29.704Z,17.90
2019-02-07T09:48:29.659Z,19.70
2019-02-07T09:49:29.648Z,20.40
2019-02-07T09:50:29.625Z,20.00
2019-02-07T09:51:29.649Z,20.80
2019-02-07T09:52:29.661Z,15.70
2019-02-07T09:53:29.644Z,20.20
2019-02-07T09:54:29.616Z,16.40
2019-02-07T09:55:29.604Z,21.20
2019-02-07T09:56:29.557Z,17.70
2019-02-07T09:57:29.555Z,17.60
2019-02-07T09:58:29.538Z,17.90
2019-02-07T09:59:29.543Z,16.00
2019-02-07T10:00:29.534Z,24.10
2019-02-07T10:01:29.500Z,18.60
2019-02-07T10:02:29.538Z,18.30
2019-02-07T10:03:29.504Z,22.80
2019-02-07T10:04:29.480Z,15.00
2019-02-07T10:05:29.529Z,13.70
2019-02-07T10:06:29.495Z,19.30
2019-02-07T10:07:29.478Z,24.40
2019-02-07T10:08:29.451Z,23.60
2019-02-07T10:09:29.431Z,21.20
2019-02-07T10:10:29.517Z,27.80
2019-02-07T10:12:39.134Z,19.70
2019-02-07T10:13:39.168Z,16.80
2019-02-07T10:14:39.125Z,17.20
2019-02-07T10:15:39.124Z,23.50
2019-02-07T10:16:39.097Z,18.80
2019-02-07T10:17:39.086Z,22.50
2019-02-07T10:18:39.111Z,15.40
2019-02-07T10:19:39.095Z,17.70
2019-02-07T10:20:39.098Z,22.30
2019-02-07T10:21:39.112Z,17.10
2019-02-07T10:22:39.250Z,22.00
2019-02-07T10:23:39.032Z,18.60
2019-02-07T10:24:39.018Z,19.60
2019-02-07T10:25:39.048Z,21.70
2019-02-07T10:26:38.974Z,21.50
2019-02-07T10:27:39.023Z,18.20
2019-02-07T10:28:38.966Z,14.10
2019-02-07T10:29:38.984Z,18.80
2019-02-07T10:30:38.947Z,15.80
2019-02-07T10:31:39.010Z,18.50
2019-02-07T10:32:38.918Z,19.70
2019-02-07T10:33:38.899Z,18.40
2019-02-07T10:34:38.908Z,21.80
2019-02-07T10:35:38.905Z,20.60
2019-02-07T10:36:38.993Z,20.70
2019-02-07T10:37:46.405Z,16.00
2019-02-07T10:38:38.870Z,15.20
2019-02-07T10:39:38.868Z,23.40
2019-02-07T10:40:38.840Z,21.80
2019-02-07T10:41:38.870Z,20.80
2019-02-07T10:42:38.827Z,24.20
2019-02-07T10:43:38.834Z,26.00
2019-02-07T10:44:38.816Z,19.10
2019-02-07T10:45:38.788Z,19.30
2019-02-07T10:46:38.806Z,20.60
2019-02-07T10:47:38.776Z,17.60
2019-02-07T10:48:44.564Z,17.50
2019-02-07T10:49:39.767Z,20.60
2019-02-07T10:50:38.786Z,18.10
2019-02-07T10:51:38.854Z,16.60
2019-02-07T10:52:40.187Z,16.80
2019-02-07T10:53:38.687Z,23.40
2019-02-07T10:54:38.675Z,11.70
2019-02-07T10:55:38.682Z,19.00
2019-02-07T10:56:38.652Z,20.40
2019-02-07T10:57:38.693Z,21.70
2019-02-07T10:58:38.632Z,22.40
2019-02-07T10:59:38.620Z,16.40
2019-02-07T11:00:38.626Z,16.50
2019-02-07T11:01:38.598Z,16.20
2019-02-07T11:02:38.615Z,14.80
2019-02-07T11:03:38.593Z,18.60
2019-02-07T11:04:38.567Z,22.10
2019-02-07T11:05:38.582Z,17.90
2019-02-07T11:06:38.562Z,16.40
2019-02-07T11:07:38.651Z,15.80
2019-02-07T11:08:38.526Z,14.00
2019-02-07T11:09:38.526Z,14.80
2019-02-07T11:10:38.507Z,28.30
2019-02-07T11:11:38.504Z,18.90
2019-02-07T11:12:38.525Z,18.40
2019-02-07T11:13:38.487Z,16.50
2019-02-07T11:14:38.466Z,15.30
2019-02-07T11:15:38.452Z,15.90
2019-02-07T11:16:38.456Z,18.90
2019-02-07T11:17:38.445Z,13.70
2019-02-07T11:18:38.462Z,22.70
2019-02-07T11:19:38.438Z,15.80
2019-02-07T11:20:38.448Z,18.00
2019-02-07T11:21:38.407Z,26.80
2019-02-07T11:22:38.380Z,16.30
2019-02-07T11:23:38.419Z,17.10
2019-02-07T11:24:38.356Z,16.80
2019-02-07T11:25:38.349Z,22.70
2019-02-07T11:26:38.338Z,17.10
2019-02-07T11:27:38.324Z,15.80
2019-02-07T11:28:38.355Z,19.80
2019-02-07T11:29:38.304Z,16.80
2019-02-07T11:30:38.324Z,17.30
2019-02-07T11:31:38.283Z,22.50
2019-02-07T11:32:38.269Z,13.00
2019-02-07T11:33:38.287Z,18.80
2019-02-07T11:34:38.268Z,17.00
2019-02-07T11:35:38.240Z,16.90
2019-02-07T11:36:38.229Z,20.80
2019-02-07T11:37:38.218Z,16.30
2019-02-07T11:38:38.215Z,15.50
2019-02-07T11:39:45.801Z,14.90
2019-02-07T11:40:38.198Z,14.20
2019-02-07T11:41:38.194Z,17.00
2019-02-07T11:42:45.782Z,14.10
2019-02-07T11:43:38.177Z,22.70
2019-02-07T11:44:45.780Z,17.00
2019-02-07T11:45:38.181Z,20.60
2019-02-07T11:46:38.323Z,12.70
2019-02-07T11:47:38.140Z,16.70
2019-02-07T11:48:38.117Z,19.30
2019-02-07T11:49:38.991Z,12.10
2019-02-07T11:50:45.663Z,20.30
2019-02-07T11:51:38.150Z,16.00
2019-02-07T11:52:38.072Z,14.90
2019-02-07T11:53:38.084Z,12.50
2019-02-07T11:54:38.214Z,12.10
2019-02-07T11:55:38.038Z,16.20
2019-02-07T11:56:45.599Z,17.60
2019-02-07T11:57:38.078Z,12.60
2019-02-07T11:58:45.579Z,13.20
2019-02-07T11:59:38.035Z,14.80
2019-02-07T12:00:37.997Z,12.70
2019-02-07T12:01:45.565Z,10.80
2019-02-07T12:02:37.969Z,18.00
2019-02-07T12:03:38.022Z,13.10
2019-02-07T12:04:45.560Z,15.20
2019-02-07T12:05:37.943Z,14.20
2019-02-07T12:06:45.451Z,16.40
2019-02-07T12:07:37.953Z,8.40
2019-02-07T12:08:45.438Z,11.60
2019-02-07T12:09:37.931Z,14.40
2019-02-07T12:10:37.886Z,14.20
2019-02-07T12:11:45.467Z,11.00
2019-02-07T12:12:37.929Z,13.20
2019-02-07T12:13:37.845Z,9.10
2019-02-07T12:14:45.446Z,13.20
2019-02-07T12:15:37.882Z,12.80
2019-02-07T12:16:45.367Z,13.60
2019-02-07T12:17:37.808Z,17.70
2019-02-07T12:18:45.346Z,12.80
2019-02-07T12:19:37.853Z,11.00
2019-02-07T12:20:45.422Z,12.80
2019-02-07T12:21:37.834Z,10.70
2019-02-07T12:22:45.358Z,15.00
2019-02-07T12:23:37.750Z,11.70
2019-02-07T12:24:45.312Z,10.30
2019-02-07T12:25:37.792Z,13.40
2019-02-07T12:26:45.277Z,11.70
2019-02-07T12:27:37.753Z,14.20
2019-02-07T12:28:37.776Z,12.70
2019-02-07T12:29:45.256Z,13.40
2019-02-07T12:30:37.683Z,13.60
2019-02-07T12:31:37.707Z,9.80
2019-02-07T12:32:45.218Z,13.80
2019-02-07T12:33:37.694Z,9.60
2019-02-07T12:34:45.197Z,11.50
2019-02-07T12:35:37.653Z,10.80
2019-02-07T12:36:45.250Z,11.70
2019-02-07T12:37:37.607Z,15.80
2019-02-07T12:38:45.121Z,11.40
2019-02-07T12:39:37.583Z,11.70
2019-02-07T12:40:37.603Z,16.20
2019-02-07T12:41:45.163Z,11.30
2019-02-07T12:42:37.548Z,15.40
2019-02-07T12:43:45.122Z,14.20
2019-02-07T12:44:37.592Z,14.50
2019-02-07T12:45:46.122Z,19.20
2019-02-07T12:46:37.581Z,11.10
2019-02-07T12:47:45.090Z,13.40
2019-02-07T12:48:37.477Z,8.80
2019-02-07T12:49:45.013Z,18.50
2019-02-07T12:50:37.512Z,13.90
2019-02-07T12:51:37.493Z,13.60
2019-02-07T12:52:45.043Z,11.50
2019-02-07T12:53:37.445Z,10.40
2019-02-07T12:54:45.006Z,13.10
2019-02-07T12:55:37.452Z,13.50
2019-02-07T12:56:37.426Z,9.40
2019-02-07T12:57:45.040Z,14.20
2019-02-07T12:58:37.365Z,11.10